createdAt,value
2019-04-20T00:01:29.409Z,20.53
2019-04-20T00:03:56.499Z,16.97
2019-04-20T00:06:27.096Z,21.93
2019-04-20T00:09:03.622Z,22.30
2019-04-20T00:11:41.479Z,22.53
2019-04-20T00:14:08.308Z,18.50
2019-04-20T00:16:32.093Z,20.03
2019-04-20T00:19:03.537Z,19.00
2019-04-20T00:21:47.293Z,19.57
2019-04-20T00:24:24.810Z,19.13
2019-04-20T00:29:39.324Z,18.63
2019-04-20T00:32:04.205Z,19.93
2019-04-20T00:34:29.492Z,18.33
2019-04-20T00:36:54.030Z,16.67
2019-04-20T00:39:23.871Z,20.73
2019-04-20T00:41:58.990Z,19.77
2019-04-20T00:44:30.389Z,20.10
2019-04-20T00:47:08.590Z,21.77
2019-04-20T00:49:45.895Z,18.70
2019-04-20T00:54:32.568Z,18.87
2019-04-20T00:57:13.244Z,20.33
2019-04-20T00:59:57.626Z,21.80
2019-04-20T01:02:18.110Z,18.57
2019-04-20T01:04:53.954Z,18.57
2019-04-20T01:07:37.700Z,24.57
2019-04-20T01:10:13.075Z,18.50
2019-04-20T01:12:44.438Z,17.80
2019-04-20T01:15:25.596Z,22.70
2019-04-20T01:17:45.166Z,17.23
2019-04-20T01:20:15.470Z,21.27
2019-04-20T01:22:52.266Z,18.10
2019-04-20T01:25:26.364Z,23.40
2019-04-20T01:28:19.266Z,19.83
2019-04-20T01:30:28.422Z,18.77
2019-04-20T01:33:04.466Z,20.47
2019-04-20T01:35:39.438Z,23.67
2019-04-20T01:38:11.321Z,25.43
2019-04-20T01:40:25.422Z,21.53
2019-04-20T01:42:55.390Z,25.57
2019-04-20T01:45:29.328Z,23.00
2019-04-20T01:47:59.192Z,23.00
2019-04-20T01:50:30.057Z,18.20
2019-04-20T01:53:10.122Z,21.70
2019-04-20T01:55:55.713Z,25.43
2019-04-20T01:58:36.370Z,18.97
2019-04-20T02:01:16.589Z,20.73
2019-04-20T02:04:20.395Z,22.43
2019-04-20T02:06:50.430Z,22.20
2019-04-20T02:09:19.133Z,17.87
2019-04-20T02:11:50.018Z,19.17
2019-04-20T02:14:24.286Z,19.63
2019-04-20T02:16:56.572Z,23.40
2019-04-20T02:19:34.437Z,23.03
2019-04-20T02:22:03.947Z,22.63
2019-04-20T02:24:21.664Z,25.70
2019-04-20T02:26:51.961Z,30.93
2019-04-20T02:29:46.180Z,21.30
2019-04-20T02:32:23.609Z,25.27
2019-04-20T02:35:16.109Z,19.30
2019-04-20T02:38:46.456Z,24.70
2019-04-20T02:40:57.425Z,18.50
2019-04-20T02:43:15.290Z,22.60
2019-04-20T02:45:47.174Z,19.63
2019-04-20T02:48:15.939Z,21.77
2019-04-20T02:50:49.624Z,19.83
2019-04-20T02:53:22.026Z,21.03
2019-04-20T02:58:25.471Z,23.23
2019-04-20T03:00:44.823Z,23.07
2019-04-20T03:03:03.202Z,16.67
2019-04-20T03:05:35.238Z,31.07
2019-04-20T03:08:16.398Z,26.60
2019-04-20T03:10:52.656Z,22.57
2019-04-20T03:13:20.921Z,18.40
2019-04-20T03:15:48.167Z,26.02
2019-04-20T03:18:22.307Z,22.33
2019-04-20T03:20:53.152Z,21.50
2019-04-20T03:23:31.021Z,24.60
2019-04-20T03:26:09.523Z,24.90
2019-04-20T03:29:01.427Z,26.27
2019-04-20T03:36:57.163Z,23.23
2019-04-20T03:39:17.861Z,21.30
2019-04-20T03:41:38.481Z,24.75
2019-04-20T03:44:09.934Z,22.13
2019-04-20T03:46:42.187Z,21.90
2019-04-20T03:49:29.789Z,21.07
2019-04-20T03:51:58.796Z,22.60
2019-04-20T03:54:28.631Z,21.90
2019-04-20T03:57:21.135Z,26.57
2019-04-20T04:00:15.038Z,22.80
2019-04-20T04:03:03.510Z,23.50
2019-04-20T04:05:42.232Z,26.83
2019-04-20T04:08:06.183Z,24.63
2019-04-20T04:10:43.360Z,21.10
2019-04-20T04:13:14.817Z,24.10
2019-04-20T04:15:52.022Z,24.90
2019-04-20T04:18:25.423Z,19.37
2019-04-20T04:20:54.062Z,21.40
2019-04-20T04:23:36.697Z,32.73
2019-04-20T04:26:08.519Z,27.50
2019-04-20T04:28:41.174Z,26.23
2019-04-20T04:31:18.749Z,26.63
2019-04-20T04:36:10.548Z,20.50
2019-04-20T04:38:51.351Z,21.40
2019-04-20T04:43:44.410Z,20.00
2019-04-20T04:45:59.679Z,23.40
2019-04-20T04:48:34.795Z,21.53
2019-04-20T04:51:07.198Z,20.07
2019-04-20T04:53:44.367Z,21.23
2019-04-20T04:56:07.363Z,22.30
2019-04-20T04:58:34.015Z,19.70
2019-04-20T05:01:10.709Z,21.73
2019-04-20T05:03:54.002Z,16.43
2019-04-20T05:06:26.426Z,17.00
2019-04-20T05:08:49.815Z,17.70
2019-04-20T05:11:17.314Z,16.50
2019-04-20T05:13:54.637Z,23.33
2019-04-20T05:16:38.451Z,20.47
2019-04-20T05:19:15.904Z,20.60
2019-04-20T05:22:05.372Z,18.33
2019-04-20T05:24:39.007Z,20.33
2019-04-20T05:27:44.030Z,17.60
2019-04-20T05:29:49.154Z,18.63
2019-04-20T05:32:32.785Z,17.07
2019-04-20T05:35:14.711Z,16.87
2019-04-20T05:37:50.128Z,18.00
2019-04-20T05:40:17.669Z,26.80
2019-04-20T05:43:17.894Z,19.00
2019-04-20T05:45:41.679Z,13.80
2019-04-20T05:48:11.955Z,17.03
2019-04-20T05:50:48.458Z,19.70
2019-04-20T05:53:19.326Z,19.43
2019-04-20T05:55:51.524Z,20.27
2019-04-20T05:58:28.848Z,16.13
2019-04-20T06:01:00.588Z,15.13
2019-04-20T06:03:25.878Z,19.17
2019-04-20T06:06:05.134Z,21.90
2019-04-20T06:08:38.437Z,18.77
2019-04-20T06:11:01.999Z,14.23
2019-04-20T06:13:32.729Z,12.07
2019-04-20T06:16:15.691Z,12.20
2019-04-20T06:18:45.915Z,15.37
2019-04-20T06:21:32.289Z,15.40
2019-04-20T06:24:17.154Z,13.53
2019-04-20T06:26:54.059Z,14.00
2019-04-20T06:29:13.697Z,17.60
2019-04-20T06:31:51.821Z,16.33
2019-04-20T06:37:07.085Z,16.10
2019-04-20T06:44:36.834Z,13.67
2019-04-20T06:49:35.300Z,15.30
2019-04-20T06:52:22.707Z,19.03
2019-04-20T06:55:04.065Z,20.17
2019-04-20T06:57:49.993Z,16.10
2019-04-20T07:00:14.163Z,20.50
2019-04-20T07:02:41.451Z,20.93
2019-04-20T07:05:15.951Z,19.00
2019-04-20T07:07:45.444Z,13.83
2019-04-20T07:12:42.074Z,20.27
2019-04-20T07:15:09.734Z,14.27
2019-04-20T07:17:56.147Z,16.10
2019-04-20T07:20:47.373Z,18.07
2019-04-20T07:23:18.661Z,27.53
2019-04-20T07:25:44.584Z,23.43
2019-04-20T07:28:11.012Z,20.70
2019-04-20T07:30:44.904Z,22.27
2019-04-20T07:33:16.043Z,15.63
2019-04-20T07:35:49.250Z,18.23
2019-04-20T07:40:53.285Z,14.73
2019-04-20T07:43:19.776Z,17.90
2019-04-20T07:45:51.719Z,20.50
2019-04-20T07:48:21.302Z,19.73
2019-04-20T07:50:44.949Z,17.77
2019-04-20T07:53:20.185Z,12.70
2019-04-20T07:56:00.552Z,20.50
2019-04-20T07:58:18.157Z,16.60
2019-04-20T08:01:12.922Z,22.97
2019-04-20T08:03:44.497Z,22.87
2019-04-20T08:06:16.603Z,17.93
2019-04-20T08:08:53.111Z,17.83
2019-04-20T08:11:27.003Z,18.83
2019-04-20T08:14:08.695Z,20.53
2019-04-20T08:17:08.171Z,18.97
2019-04-20T08:19:20.289Z,12.50
2019-04-20T08:21:35.089Z,16.27
2019-04-20T08:24:07.030Z,17.67
2019-04-20T08:26:24.730Z,27.07
2019-04-20T08:29:00.348Z,17.93
2019-04-20T08:32:07.733Z,41.77
2019-04-20T08:34:38.385Z,16.43
2019-04-20T08:37:01.623Z,16.30
2019-04-20T08:39:46.356Z,18.33
2019-04-20T08:42:11.642Z,18.77
2019-04-20T08:44:54.751Z,21.77
2019-04-20T08:47:18.256Z,18.17
2019-04-20T08:50:19.309Z,20.57
2019-04-20T08:53:03.801Z,16.30
2019-04-20T08:55:10.253Z,18.90
2019-04-20T08:57:27.043Z,22.50
2019-04-20T08:59:59.613Z,14.77
2019-04-20T09:02:28.083Z,18.63
2019-04-20T09:05:03.425Z,17.90
2019-04-20T09:07:35.113Z,12.53
2019-04-20T09:10:25.446Z,23.43
2019-04-20T09:12:45.989Z,16.40
2019-04-20T09:15:04.136Z,16.73
2019-04-20T09:17:52.542Z,15.80
2019-04-20T09:20:33.043Z,19.13
2019-04-20T09:23:14.181Z,17.67
2019-04-20T09:28:27.530Z,14.87
2019-04-20T09:31:01.848Z,21.83
2019-04-20T09:34:07.653Z,18.30
2019-04-20T09:36:55.912Z,14.50
2019-04-20T09:39:44.192Z,12.10
2019-04-20T09:42:20.327Z,12.27
2019-04-20T09:44:55.543Z,15.10
2019-04-20T09:47:32.644Z,20.30
2019-04-20T09:50:03.269Z,13.23
2019-04-20T09:52:38.139Z,20.30
2019-04-20T09:55:10.798Z,14.90
2019-04-20T09:57:50.283Z,16.70
2019-04-20T10:00:15.470Z,18.93
2019-04-20T10:02:34.810Z,19.43
2019-04-20T10:05:03.388Z,15.30
2019-04-20T10:07:35.630Z,18.97
2019-04-20T10:10:15.589Z,18.73
2019-04-20T10:12:35.618Z,12.90
2019-04-20T10:15:12.447Z,13.50
2019-04-20T10:17:38.235Z,13.40
2019-04-20T10:20:12.763Z,18.37
2019-04-20T10:22:40.492Z,16.27
2019-04-20T10:25:10.822Z,12.83
2019-04-20T10:27:43.579Z,11.90
2019-04-20T10:30:12.988Z,8.93
2019-04-20T10:32:45.707Z,16.17
2019-04-20T10:35:15.645Z,11.17
2019-04-20T10:37:49.846Z,16.67
2019-04-20T10:40:32.641Z,13.30
2019-04-20T10:42:50.380Z,14.77
2019-04-20T10:45:21.165Z,19.00
2019-04-20T10:47:50.817Z,17.00
2019-04-20T10:50:20.930Z,13.60
2019-04-20T10:52:50.290Z,17.13
2019-04-20T10:55:20.741Z,15.35
2019-04-20T10:57:53.326Z,17.30
2019-04-20T11:00:39.728Z,14.20
2019-04-20T11:03:10.035Z,21.87
2019-04-20T11:05:40.377Z,15.60
2019-04-20T11:08:10.661Z,17.70
2019-04-20T11:10:52.130Z,11.50
2019-04-20T11:13:11.836Z,15.70
2019-04-20T11:15:42.283Z,16.60
2019-04-20T11:18:13.313Z,15.30
2019-04-20T11:20:43.618Z,18.07
2019-04-20T11:23:13.998Z,21.60
2019-04-20T11:25:44.156Z,19.50
2019-04-20T11:28:14.375Z,14.80
2019-04-20T11:30:43.904Z,13.10
2019-04-20T11:33:14.013Z,13.70
2019-04-20T11:35:45.231Z,17.83
2019-04-20T11:38:17.235Z,12.23
2019-04-20T11:40:54.756Z,25.50
2019-04-20T11:43:18.091Z,10.90
2019-04-20T11:45:48.917Z,16.77
2019-04-20T11:48:21.203Z,14.27
2019-04-20T11:50:51.632Z,10.80
2019-04-20T11:53:21.609Z,17.60
2019-04-20T11:55:52.111Z,16.00
2019-04-20T11:58:22.225Z,16.27
2019-04-20T12:01:01.220Z,13.43
2019-04-20T12:03:35.281Z,12.87
2019-04-20T12:06:01.635Z,15.47
2019-04-20T12:08:32.169Z,16.77
2019-04-20T12:11:12.034Z,14.60
2019-04-20T12:13:31.781Z,14.67
2019-04-20T12:16:01.560Z,13.13
2019-04-20T12:18:31.701Z,16.50
2019-04-20T12:21:01.075Z,13.33
2019-04-20T12:23:30.709Z,15.30
2019-04-20T12:26:00.235Z,12.60
2019-04-20T12:28:29.680Z,13.73
2019-04-20T12:31:04.110Z,14.57
2019-04-20T12:33:30.796Z,12.17
2019-04-20T12:36:00.384Z,12.73
2019-04-20T12:38:30.783Z,16.20
2019-04-20T12:41:02.868Z,21.27
2019-04-20T12:43:31.876Z,12.33
2019-04-20T12:46:02.198Z,14.83
2019-04-20T12:48:31.567Z,20.73
2019-04-20T12:51:01.600Z,11.47
2019-04-20T12:53:31.213Z,16.40
2019-04-20T12:56:00.448Z,14.43
2019-04-20T12:58:30.567Z,13.80
2019-04-20T13:01:00.563Z,12.70
2019-04-20T13:03:29.903Z,14.73
2019-04-20T13:05:59.909Z,11.77
2019-04-20T13:08:36.259Z,12.60
2019-04-20T13:11:10.974Z,18.47
2019-04-20T13:13:50.297Z,12.10
2019-04-20T13:16:28.269Z,13.43
2019-04-20T13:19:01.539Z,11.33
2019-04-20T13:21:32.437Z,11.70
2019-04-20T13:24:03.234Z,13.67
2019-04-20T13:26:33.236Z,14.37
2019-04-20T13:29:02.651Z,18.33
2019-04-20T13:31:31.913Z,11.63
2019-04-20T13:34:01.595Z,14.40
2019-04-20T13:36:32.547Z,11.40
2019-04-20T13:39:01.876Z,13.37
2019-04-20T13:41:31.713Z,12.20
2019-04-20T13:44:03.132Z,11.03
2019-04-20T13:46:33.343Z,9.97
2019-04-20T13:49:03.106Z,10.60
2019-04-20T13:51:32.897Z,12.63
2019-04-20T13:54:07.366Z,14.03
2019-04-20T13:56:35.159Z,17.00
2019-04-20T13:59:27.860Z,16.13
2019-04-20T14:02:22.710Z,12.27
2019-04-20T14:04:56.756Z,18.10
2019-04-20T14:07:27.024Z,12.67
2019-04-20T14:09:57.531Z,12.43
2019-04-20T14:12:33.589Z,13.30
2019-04-20T14:14:59.454Z,14.93
2019-04-20T14:17:30.948Z,16.93
2019-04-20T14:20:06.918Z,14.47
2019-04-20T14:22:31.495Z,12.70
2019-04-20T14:25:01.092Z,11.90
2019-04-20T14:27:30.838Z,12.83
2019-04-20T14:30:01.341Z,15.93
2019-04-20T14:32:32.534Z,10.10
2019-04-20T14:35:03.151Z,10.50
2019-04-20T14:37:32.990Z,12.13
2019-04-20T14:40:02.315Z,12.60
2019-04-20T14:42:39.488Z,12.87
2019-04-20T14:45:02.607Z,13.30
2019-04-20T14:47:32.226Z,9.17
2019-04-20T14:50:03.084Z,12.37
2019-04-20T14:52:33.518Z,17.03
2019-04-20T14:55:03.767Z,12.50
2019-04-20T14:57:33.482Z,16.67
2019-04-20T15:00:13.763Z,11.77
2019-04-20T15:02:45.841Z,12.40
2019-04-20T15:05:15.102Z,12.10
2019-04-20T15:07:44.794Z,16.50
2019-04-20T15:10:14.901Z,10.87
2019-04-20T15:12:49.945Z,20.80
2019-04-20T15:15:16.660Z,16.40
2019-04-20T15:17:53.535Z,11.33
2019-04-20T15:20:33.444Z,10.17
2019-04-20T15:23:07.668Z,11.20
2019-04-20T15:25:42.264Z,11.80
2019-04-20T15:28:12.349Z,9.67
2019-04-20T15:30:42.493Z,12.43
2019-04-20T15:33:12.693Z,10.53
2019-04-20T15:35:44.089Z,11.97
2019-04-20T15:38:15.394Z,14.77
2019-04-20T15:40:44.933Z,17.90
2019-04-20T15:43:20.900Z,15.00
2019-04-20T15:45:49.655Z,12.70
2019-04-20T15:48:19.900Z,12.93
2019-04-20T15:50:49.876Z,12.93
2019-04-20T15:53:21.768Z,13.70
2019-04-20T15:55:52.604Z,9.27
2019-04-20T15:58:22.733Z,11.87
2019-04-20T16:00:54.507Z,10.73
2019-04-20T16:03:27.745Z,12.80
2019-04-20T16:06:03.253Z,12.23
2019-04-20T16:08:54.447Z,17.50
2019-04-20T16:11:28.677Z,14.27
2019-04-20T16:14:00.142Z,13.20
2019-04-20T16:16:31.969Z,12.47
2019-04-20T16:19:06.166Z,12.40
2019-04-20T16:21:35.753Z,9.73
2019-04-20T16:24:15.016Z,21.43
2019-04-20T16:27:03.542Z,11.60
2019-04-20T16:29:33.563Z,15.23
2019-04-20T16:32:02.974Z,10.50
2019-04-20T16:34:33.640Z,12.13
2019-04-20T16:37:04.278Z,14.77
2019-04-20T16:39:34.373Z,34.70
2019-04-20T16:42:24.476Z,12.40
2019-04-20T16:44:55.273Z,12.67
2019-04-20T16:47:25.786Z,8.40
2019-04-20T16:49:55.261Z,10.87
2019-04-20T16:52:25.144Z,12.50
2019-04-20T16:54:55.560Z,10.17
2019-04-20T16:57:25.629Z,18.17
2019-04-20T16:59:57.764Z,14.03
2019-04-20T17:02:26.527Z,9.50
2019-04-20T17:04:56.593Z,18.13
2019-04-20T17:07:31.045Z,11.07
2019-04-20T17:10:00.475Z,13.63
2019-04-20T17:12:30.150Z,18.30
2019-04-20T17:14:59.482Z,14.27
2019-04-20T17:17:29.428Z,14.18
2019-04-20T17:19:59.703Z,19.30
2019-04-20T17:22:30.045Z,11.40
2019-04-20T17:24:59.988Z,19.47
2019-04-20T17:27:49.188Z,12.50
2019-04-20T17:30:54.975Z,14.23
2019-04-20T17:33:56.122Z,16.70
2019-04-20T17:36:20.871Z,19.73
2019-04-20T17:38:53.717Z,12.63
2019-04-20T17:41:40.203Z,11.70
2019-04-20T17:44:05.670Z,17.43
2019-04-20T17:46:35.782Z,17.43
2019-04-20T17:49:09.295Z,13.50
2019-04-20T17:51:40.039Z,16.60
2019-04-20T17:54:15.843Z,8.90
2019-04-20T17:56:46.641Z,11.37
2019-04-20T17:59:17.691Z,13.93
2019-04-20T18:02:30.639Z,11.40
2019-04-20T18:05:32.817Z,14.53
2019-04-20T18:08:06.299Z,10.27
2019-04-20T18:10:31.214Z,12.83
2019-04-20T18:12:51.976Z,11.30
2019-04-20T18:15:36.042Z,13.83
2019-04-20T18:18:28.323Z,12.70
2019-04-20T18:21:01.348Z,14.07
2019-04-20T18:23:37.113Z,12.90
2019-04-20T18:26:22.630Z,19.83
2019-04-20T18:28:58.668Z,12.87
2019-04-20T18:31:23.750Z,10.60
2019-04-20T18:36:47.566Z,17.43
2019-04-20T18:39:22.101Z,21.33
2019-04-20T18:41:53.884Z,14.33
2019-04-20T18:44:27.710Z,13.10
2019-04-20T18:47:13.636Z,12.07
2019-04-20T18:49:35.057Z,12.50
2019-04-20T18:51:54.080Z,11.33
2019-04-20T18:54:28.610Z,11.10
2019-04-20T18:57:22.375Z,12.53
2019-04-20T18:59:52.987Z,13.77
2019-04-20T19:02:26.915Z,16.83
2019-04-20T19:04:51.182Z,11.47
2019-04-20T19:07:21.833Z,11.90
2019-04-20T19:09:53.245Z,14.47
2019-04-20T19:12:34.112Z,13.50
2019-04-20T19:15:31.751Z,13.33
2019-04-20T19:18:15.663Z,14.40
2019-04-20T19:20:39.018Z,16.17
2019-04-20T19:23:08.492Z,15.60
2019-04-20T19:25:40.955Z,15.57
2019-04-20T19:28:10.383Z,13.03
2019-04-20T19:30:49.777Z,15.70
2019-04-20T19:33:30.423Z,24.63
2019-04-20T19:35:53.017Z,15.97
2019-04-20T19:38:21.872Z,17.50
2019-04-20T19:40:55.863Z,20.23
2019-04-20T19:43:23.488Z,19.80
2019-04-20T19:46:29.675Z,25.40
2019-04-20T19:48:32.644Z,23.67
2019-04-20T19:51:10.164Z,29.30
2019-04-20T19:53:41.693Z,23.73
2019-04-20T19:56:03.660Z,27.77
2019-04-20T19:58:34.403Z,25.40
2019-04-20T20:00:57.709Z,26.93
2019-04-20T20:03:25.900Z,28.73
2019-04-20T20:05:57.805Z,31.70
2019-04-20T20:08:31.593Z,26.57
2019-04-20T20:11:01.270Z,27.60
2019-04-20T20:13:34.512Z,29.10
2019-04-20T20:16:09.730Z,26.60
2019-04-20T20:18:45.290Z,26.60
2019-04-20T20:21:15.198Z,28.80
2019-04-20T20:23:36.253Z,30.70
2019-04-20T20:26:09.003Z,33.00
2019-04-20T20:28:45.484Z,26.53
2019-04-20T20:31:22.374Z,33.67
2019-04-20T20:33:54.803Z,30.03
2019-04-20T20:36:17.187Z,33.03
2019-04-20T20:38:46.860Z,30.50
2019-04-20T20:41:22.899Z,40.73
2019-04-20T20:43:56.328Z,28.43
2019-04-20T20:46:28.448Z,29.77
2019-04-20T20:49:11.740Z,33.37
2019-04-20T20:51:44.266Z,37.93
2019-04-20T20:54:00.205Z,32.37
2019-04-20T20:56:29.169Z,36.30
2019-04-20T20:59:06.769Z,32.73
2019-04-20T21:01:27.937Z,32.37
2019-04-20T21:03:56.767Z,32.17
2019-04-20T21:06:26.608Z,43.00
2019-04-20T21:08:59.917Z,33.27
2019-04-20T21:11:31.428Z,37.60
2019-04-20T21:13:59.302Z,38.63
2019-04-20T21:16:33.027Z,36.67
2019-04-20T21:19:17.211Z,37.70
2019-04-20T21:21:44.290Z,33.67
2019-04-20T21:24:19.546Z,35.90
2019-04-20T21:26:47.773Z,35.00
2019-04-20T21:29:20.994Z,37.50
2019-04-20T21:31:56.839Z,37.10
2019-04-20T21:34:21.912Z,37.20
2019-04-20T21:36:55.330Z,36.90
2019-04-20T21:39:34.169Z,37.20
2019-04-20T21:42:02.559Z,37.03
2019-04-20T21:44:28.722Z,39.57
2019-04-20T21:46:56.764Z,39.73
2019-04-20T21:49:43.928Z,35.30
2019-04-20T21:52:03.208Z,37.75
2019-04-20T21:54:29.813Z,39.10
2019-04-20T21:57:03.968Z,37.27
2019-04-20T21:59:36.262Z,40.10
2019-04-20T22:02:10.185Z,39.00
2019-04-20T22:04:33.500Z,42.70
2019-04-20T22:07:02.866Z,38.40
2019-04-20T22:09:40.022Z,49.87
2019-04-20T22:12:03.822Z,44.37
2019-04-20T22:14:34.022Z,55.60
2019-04-20T22:18:25.436Z,48.37
2019-04-20T22:21:05.830Z,45.67
2019-04-20T22:23:46.377Z,43.07
2019-04-20T22:26:10.709Z,53.03
2019-04-20T22:28:29.740Z,60.00
2019-04-20T22:31:00.022Z,49.70
2019-04-20T22:33:36.335Z,47.70
2019-04-20T22:36:07.333Z,62.60
2019-04-20T22:39:07.155Z,49.90
2019-04-20T22:41:40.725Z,59.40
2019-04-20T22:44:15.429Z,53.73
2019-04-20T22:46:43.758Z,55.73
2019-04-20T22:49:35.132Z,57.70
2019-04-20T22:51:55.706Z,50.87
2019-04-20T22:54:34.716Z,61.43
2019-04-20T22:56:57.604Z,63.67
2019-04-20T22:59:22.619Z,58.30
2019-04-20T23:01:56.163Z,69.10
2019-04-20T23:04:21.168Z,57.13
2019-04-20T23:06:52.041Z,63.33
2019-04-20T23:09:22.509Z,67.60
2019-04-20T23:11:54.663Z,61.20
2019-04-20T23:14:24.278Z,66.93
2019-04-20T23:16:57.049Z,58.10
2019-04-20T23:19:34.297Z,64.50
2019-04-20T23:22:01.271Z,67.20
2019-04-20T23:24:27.468Z,72.60
2019-04-20T23:26:59.453Z,79.13
2019-04-20T23:29:34.165Z,71.87
2019-04-20T23:32:04.919Z,72.65
2019-04-20T23:34:33.839Z,74.37
2019-04-20T23:37:03.007Z,79.27
2019-04-20T23:39:37.356Z,78.30
2019-04-20T23:42:08.420Z,76.10
2019-04-20T23:44:46.655Z,89.87
2019-04-20T23:47:27.878Z,77.80
2019-04-20T23:50:15.122Z,82.03
2019-04-20T23:52:53.376Z,83.27
2019-04-20T23:55:06.829Z,80.30
2019-04-20T23:57:35.768Z,72.83
